46NY weather

Savannah Agri-Air Airport
Savannah, New York, United States

Public forecast

Using degrees Fahrenheit for public forecast. Weather courtesy of forecast.io.

METAR (pilot weather report)

Closest report is Oswego County Airport, 25.8 nm (47.7 km) NE. Retrieved 2019/05/24 05:54 UTC (24 minutes ago):

KFZY 240554Z AUTO 28012G19KT 10SM FEW060 BKN100 14/07 A2986 RMK AO2 SLP112 T01390067 10183 20133 53005

TAF (pilot weather forecast)

Closest forecast is Syracuse Hancock International Airport, 29.2 nm (54.2 km) E. Retrieved 2019/05/24 06:22 UTC (0 seconds ago):

TAF KSYR 240520Z 2406/2506 28012KT P6SM SCT060 FM241000 28010G20KT P6SM BKN025 TEMPO 2412/2416 BKN015 FM242200 31006KT P6SM BKN035